Time;durP1;ratioP1;P1;durP2;ratioP2;P2;SDS_P1;SDS_P2;PMS_P1;PMS_P2;Temp;Humidity;BMP_temperature;BMP_pressure;BME280_temperature;BME280_humidity;BME280_pressure;Samples;Min_cycle;Max_cycle;Signal;HPM_P1;HPM_P2
2022/09/23 00:02:01;;;;;;;1.65;1.20;;;;;;;;;;2373801;56;21129;-77
2022/09/23 00:04:28;;;;;;;2.40;1.67;;;;;;;;;;2371876;56;21047;-77
2022/09/23 00:06:56;;;;;;;3.10;1.40;;;;;;;;;;2372990;56;21047;-76
2022/09/23 00:09:23;;;;;;;2.03;1.25;;;;;;;;;;2374080;56;21110;-76
2022/09/23 00:11:50;;;;;;;1.50;1.40;;;;;;;;;;2373876;56;21043;-76
2022/09/23 00:14:17;;;;;;;3.08;1.50;;;;;;;;;;2372801;56;21783;-74
2022/09/23 00:16:45;;;;;;;1.80;1.30;;;;;;;;;;2372426;56;21111;-76
2022/09/23 00:19:12;;;;;;;1.85;1.60;;;;;;;;;;2373059;56;21305;-73
2022/09/23 00:21:39;;;;;;;2.00;1.42;;;;;;;;;;2372255;56;21792;-77
2022/09/23 00:24:06;;;;;;;1.62;1.30;;;;;;;;;;2373518;56;21728;-73
2022/09/23 00:26:34;;;;;;;1.87;1.50;;;;;;;;;;2626112;52;21095;-76
2022/09/23 00:29:01;;;;;;;1.45;1.30;;;;;;;;;;2374178;56;21606;-77
2022/09/23 00:31:28;;;;;;;5.15;1.30;;;;;;;;;;2373402;56;21126;-77
2022/09/23 00:33:57;;;;;;;1.92;1.55;;;;;;;;;;2373747;56;21098;-77
2022/09/23 00:36:24;;;;;;;1.92;1.30;;;;;;;;;;2625824;52;21074;-77
2022/09/23 00:38:51;;;;;;;2.67;1.62;;;;;;;;;;2373503;56;21578;-77
2022/09/23 00:41:19;;;;;;;1.50;1.23;;;;;;;;;;2373407;56;21095;-77
2022/09/23 00:43:47;;;;;;;3.03;1.37;;;;;;;;;;2373872;56;21059;-77
2022/09/23 00:46:17;;;;;;;3.50;1.55;;;;;;;;;;2372620;56;21170;-76
2022/09/23 00:48:45;;;;;;;1.98;1.20;;;;;;;;;;2373254;56;21545;-76
2022/09/23 00:51:16;;;;;;;1.92;1.50;;;;;;;;;;2372819;56;21178;-74
2022/09/23 00:53:44;;;;;;;1.83;1.37;;;;;;;;;;2627196;52;21019;-77
2022/09/23 00:56:12;;;;;;;3.50;1.40;;;;;;;;;;2372708;56;21569;-76
2022/09/23 00:58:40;;;;;;;1.87;1.52;;;;;;;;;;2627162;52;21039;-76
2022/09/23 01:01:08;;;;;;;1.50;1.40;;;;;;;;;;2373321;56;21043;-76
2022/09/23 01:03:35;;;;;;;1.55;1.30;;;;;;;;;;2373787;56;21125;-74
2022/09/23 01:06:02;;;;;;;3.72;2.03;;;;;;;;;;2372568;56;21541;-75
2022/09/23 01:08:30;;;;;;;1.65;1.50;;;;;;;;;;2373274;56;21051;-76
2022/09/23 01:11:02;;;;;;;1.48;1.35;;;;;;;;;;2626729;52;21082;-76
2022/09/23 01:13:33;;;;;;;1.92;1.62;;;;;;;;;;2627819;52;21051;-76
2022/09/23 01:16:05;;;;;;;1.62;1.42;;;;;;;;;;2373105;56;21585;-71
2022/09/23 01:18:35;;;;;;;1.62;1.40;;;;;;;;;;2373925;56;21027;-76
2022/09/23 01:21:09;;;;;;;1.45;1.20;;;;;;;;;;2372154;56;21102;-74
2022/09/23 01:23:53;;;;;;;3.05;1.40;;;;;;;;;;2373182;56;21114;-75
2022/09/23 01:26:19;;;;;;;;;;;;;;;;;;2375140;56;21114;-76
2022/09/23 01:29:01;;;;;;;1.42;1.30;;;;;;;;;;2374100;56;20392;-73
2022/09/23 01:31:31;;;;;;;1.65;1.40;;;;;;;;;;2373474;56;21574;-76
2022/09/23 01:34:05;;;;;;;3.10;1.40;;;;;;;;;;2373561;56;21146;-76
2022/09/23 01:36:35;;;;;;;3.47;1.60;;;;;;;;;;2624087;52;21107;-74
2022/09/23 01:39:08;;;;;;;1.73;1.45;;;;;;;;;;2373324;56;21158;-76
2022/09/23 01:41:42;;;;;;;2.45;1.40;;;;;;;;;;2373323;56;22014;-75
2022/09/23 01:44:11;;;;;;;2.22;1.70;;;;;;;;;;2374079;56;21047;-76
2022/09/23 01:46:41;;;;;;;1.40;1.30;;;;;;;;;;2266462;55;74269;-80
2022/09/23 01:49:11;;;;;;;2.25;1.67;;;;;;;;;;2256220;59;21134;-81
2022/09/23 01:51:41;;;;;;;3.67;1.35;;;;;;;;;;2256355;59;21153;-81
2022/09/23 01:54:11;;;;;;;2.17;1.40;;;;;;;;;;2256742;59;21134;-81
2022/09/23 01:56:40;;;;;;;2.15;1.52;;;;;;;;;;2280609;59;21135;-81
2022/09/23 01:59:10;;;;;;;4.70;1.65;;;;;;;;;;2513876;55;21024;-82
2022/09/23 02:01:40;;;;;;;2.90;1.48;;;;;;;;;;2514232;55;21052;-81
2022/09/23 02:04:08;;;;;;;1.48;1.37;;;;;;;;;;2514831;55;21040;-81
2022/09/23 02:06:39;;;;;;;1.98;1.42;;;;;;;;;;2281010;59;21056;-82
2022/09/23 02:09:09;;;;;;;2.03;1.50;;;;;;;;;;2282030;59;21619;-81
2022/09/23 02:11:36;;;;;;;2.85;1.85;;;;;;;;;;2280524;59;21100;-81
2022/09/23 02:14:05;;;;;;;2.80;1.33;;;;;;;;;;2281290;59;21092;-81
2022/09/23 02:16:34;;;;;;;1.60;1.40;;;;;;;;;;2281339;59;21762;-81
2022/09/23 02:19:03;;;;;;;2.60;1.42;;;;;;;;;;2514903;55;21055;-82
2022/09/23 02:21:33;;;;;;;1.55;1.45;;;;;;;;;;2281629;59;21366;-82
2022/09/23 02:24:03;;;;;;;2.10;1.40;;;;;;;;;;2282221;59;21127;-81
2022/09/23 02:26:33;;;;;;;2.17;1.65;;;;;;;;;;2512758;55;21131;-81
2022/09/23 02:29:06;;;;;;;2.83;1.60;;;;;;;;;;2281334;59;21068;-81
2022/09/23 02:31:37;;;;;;;2.35;1.45;;;;;;;;;;2281679;59;21067;-81
2022/09/23 02:34:09;;;;;;;3.08;1.67;;;;;;;;;;2281946;59;21032;-81
2022/09/23 02:36:40;;;;;;;1.80;1.35;;;;;;;;;;2514161;55;21071;-82
2022/09/23 02:39:10;;;;;;;2.08;1.58;;;;;;;;;;2281696;59;21073;-81
2022/09/23 02:41:46;;;;;;;1.55;1.42;;;;;;;;;;2514733;55;21056;-81
2022/09/23 02:44:15;;;;;;;2.25;1.98;;;;;;;;;;2280913;59;21060;-81
2022/09/23 02:46:42;;;;;;;1.67;1.40;;;;;;;;;;2280954;59;21163;-82
2022/09/23 02:49:11;;;;;;;3.03;1.60;;;;;;;;;;2281298;59;21616;-81
2022/09/23 02:51:39;;;;;;;1.75;1.50;;;;;;;;;;2514267;55;21111;-81
2022/09/23 02:54:09;;;;;;;1.95;1.30;;;;;;;;;;2281343;59;21056;-81
2022/09/23 02:56:37;;;;;;;4.85;1.50;;;;;;;;;;2513276;55;21076;-81
2022/09/23 02:59:05;;;;;;;1.95;1.67;;;;;;;;;;2281776;59;21052;-81
2022/09/23 03:01:38;;;;;;;1.95;1.50;;;;;;;;;;2281057;59;21044;-82
2022/09/23 03:04:11;;;;;;;2.50;1.70;;;;;;;;;;2513787;55;21048;-81
2022/09/23 03:06:44;;;;;;;3.37;1.62;;;;;;;;;;2513514;55;21171;-82
2022/09/23 03:09:13;;;;;;;1.58;1.48;;;;;;;;;;2281949;59;21139;-81
2022/09/23 03:11:44;;;;;;;1.73;1.40;;;;;;;;;;2514499;55;21100;-81
2022/09/23 03:14:16;;;;;;;1.48;1.00;;;;;;;;;;2281696;59;21071;-81
2022/09/23 03:16:47;;;;;;;1.42;1.20;;;;;;;;;;2281439;59;21470;-81
2022/09/23 03:19:20;;;;;;;3.08;1.67;;;;;;;;;;2281629;59;21078;-81
2022/09/23 03:21:50;;;;;;;4.10;1.52;;;;;;;;;;2282049;59;21101;-81
2022/09/23 03:24:19;;;;;;;2.55;1.83;;;;;;;;;;2514130;55;21090;-81
2022/09/23 03:26:47;;;;;;;1.80;1.37;;;;;;;;;;2513513;55;21195;-81
2022/09/23 03:29:15;;;;;;;1.80;1.52;;;;;;;;;;2281104;59;21099;-81
2022/09/23 03:31:43;;;;;;;1.70;1.45;;;;;;;;;;2513992;55;21214;-81
2022/09/23 03:34:14;;;;;;;2.33;1.48;;;;;;;;;;2514160;55;21092;-81
2022/09/23 03:36:50;;;;;;;2.25;1.95;;;;;;;;;;2513491;55;21139;-81
2022/09/23 03:39:23;;;;;;;1.80;1.65;;;;;;;;;;2513836;55;21091;-81
2022/09/23 03:41:51;;;;;;;4.65;1.67;;;;;;;;;;2513931;55;21052;-82
2022/09/23 03:44:19;;;;;;;1.90;1.60;;;;;;;;;;2281853;59;21108;-82
2022/09/23 03:46:48;;;;;;;1.73;1.50;;;;;;;;;;2281151;59;21079;-81
2022/09/23 03:49:17;;;;;;;2.75;1.50;;;;;;;;;;2514650;55;21071;-81
2022/09/23 03:51:44;;;;;;;2.78;1.90;;;;;;;;;;2281833;59;21047;-81
2022/09/23 03:54:11;;;;;;;2.42;1.75;;;;;;;;;;2282118;59;21119;-81
2022/09/23 03:56:39;;;;;;;1.90;1.40;;;;;;;;;;2513836;55;21028;-81
2022/09/23 03:59:06;;;;;;;2.53;1.87;;;;;;;;;;2281298;59;21314;-82
2022/09/23 04:01:33;;;;;;;2.25;1.87;;;;;;;;;;2514878;55;21044;-82
2022/09/23 04:04:00;;;;;;;3.00;1.67;;;;;;;;;;2514608;55;21536;-82
2022/09/23 04:06:28;;;;;;;3.05;1.60;;;;;;;;;;2514305;55;21107;-81
2022/09/23 04:08:55;;;;;;;2.15;1.37;;;;;;;;;;2281306;59;21631;-81
2022/09/23 04:11:22;;;;;;;3.87;1.50;;;;;;;;;;2281508;59;21099;-81
2022/09/23 04:13:49;;;;;;;6.40;2.03;;;;;;;;;;2281605;59;21075;-82
2022/09/23 04:16:16;;;;;;;2.00;1.55;;;;;;;;;;2514262;55;21163;-81
2022/09/23 04:18:43;;;;;;;2.25;1.65;;;;;;;;;;2514060;55;21047;-83
2022/09/23 04:21:10;;;;;;;2.35;1.40;;;;;;;;;;2281161;59;21163;-82
2022/09/23 04:23:38;;;;;;;1.75;1.27;;;;;;;;;;2281944;59;21051;-82
2022/09/23 04:26:05;;;;;;;2.08;1.48;;;;;;;;;;2281258;59;21691;-82
2022/09/23 04:28:33;;;;;;;2.10;1.55;;;;;;;;;;2514168;55;21120;-82
2022/09/23 04:31:04;;;;;;;2.17;1.60;;;;;;;;;;2281729;59;21044;-82
2022/09/23 04:33:31;;;;;;;3.12;1.77;;;;;;;;;;2514659;55;21135;-82
2022/09/23 04:35:59;;;;;;;1.75;1.52;;;;;;;;;;2512460;55;21151;-82
2022/09/23 04:38:26;;;;;;;3.45;2.03;;;;;;;;;;2281750;59;21151;-81
2022/09/23 04:40:53;;;;;;;2.00;1.70;;;;;;;;;;2281961;59;21115;-82
2022/09/23 04:43:22;;;;;;;2.15;1.55;;;;;;;;;;2281659;59;21158;-82
2022/09/23 04:45:58;;;;;;;3.42;1.50;;;;;;;;;;2281221;59;21668;-82
2022/09/23 04:48:26;;;;;;;2.78;1.70;;;;;;;;;;2514281;55;21052;-82
2022/09/23 04:50:53;;;;;;;3.42;1.90;;;;;;;;;;2281862;59;21131;-82
2022/09/23 04:53:20;;;;;;;2.03;1.83;;;;;;;;;;2281920;59;21187;-82
2022/09/23 04:55:51;;;;;;;2.08;1.70;;;;;;;;;;2514548;55;21052;-82
2022/09/23 04:58:19;;;;;;;2.45;1.85;;;;;;;;;;2514571;55;21111;-82
2022/09/23 05:00:46;;;;;;;1.90;1.52;;;;;;;;;;2513948;55;21068;-82
2022/09/23 05:03:13;;;;;;;2.50;1.70;;;;;;;;;;2514003;55;21663;-82
2022/09/23 05:05:41;;;;;;;4.28;2.08;;;;;;;;;;2281410;59;21059;-82
2022/09/23 05:08:08;;;;;;;3.00;1.87;;;;;;;;;;2282023;59;21048;-82
2022/09/23 05:10:35;;;;;;;5.62;2.17;;;;;;;;;;2281907;59;21072;-82
2022/09/23 05:13:02;;;;;;;4.30;2.33;;;;;;;;;;2281941;59;21047;-82
2022/09/23 05:15:29;;;;;;;3.25;2.10;;;;;;;;;;2513693;55;21123;-82
2022/09/23 05:17:58;;;;;;;2.83;1.80;;;;;;;;;;2514827;55;21103;-82
2022/09/23 05:20:25;;;;;;;6.25;2.37;;;;;;;;;;2280910;59;21135;-82
2022/09/23 05:22:54;;;;;;;2.45;1.90;;;;;;;;;;2281444;59;21128;-82
2022/09/23 05:25:23;;;;;;;4.57;2.30;;;;;;;;;;2514144;55;21151;-82
2022/09/23 05:27:50;;;;;;;2.00;1.65;;;;;;;;;;2280924;59;21556;-82
2022/09/23 05:30:18;;;;;;;3.12;2.00;;;;;;;;;;2513969;55;21159;-82
2022/09/23 05:32:45;;;;;;;2.20;2.00;;;;;;;;;;2281295;59;21044;-82
2022/09/23 05:35:12;;;;;;;2.83;2.10;;;;;;;;;;2512809;55;21059;-82
2022/09/23 05:37:39;;;;;;;3.35;1.75;;;;;;;;;;2513753;55;21163;-82
2022/09/23 05:40:07;;;;;;;4.43;2.03;;;;;;;;;;2514395;55;21187;-81
2022/09/23 05:42:34;;;;;;;2.80;1.95;;;;;;;;;;2514300;55;21146;-82
2022/09/23 05:45:01;;;;;;;2.47;1.75;;;;;;;;;;2281748;59;21136;-81
2022/09/23 05:47:28;;;;;;;2.72;1.85;;;;;;;;;;2514550;55;21442;-82
2022/09/23 05:49:55;;;;;;;2.20;2.00;;;;;;;;;;2281463;59;21062;-81
2022/09/23 05:52:24;;;;;;;3.33;2.20;;;;;;;;;;2513823;55;21098;-82
2022/09/23 05:54:51;;;;;;;2.78;2.05;;;;;;;;;;2281569;59;21124;-81
2022/09/23 05:57:19;;;;;;;12.15;2.22;;;;;;;;;;2281621;59;21051;-81
2022/09/23 05:59:47;;;;;;;3.85;2.25;;;;;;;;;;2514527;55;21035;-82
2022/09/23 06:02:14;;;;;;;5.10;2.20;;;;;;;;;;2514737;55;21135;-81
2022/09/23 06:04:42;;;;;;;3.05;2.20;;;;;;;;;;2281687;59;21783;-82
2022/09/23 06:07:09;;;;;;;5.25;2.17;;;;;;;;;;2281201;59;21056;-82
2022/09/23 06:09:37;;;;;;;3.00;1.87;;;;;;;;;;2280063;59;21055;-82
2022/09/23 06:12:05;;;;;;;1.77;1.60;;;;;;;;;;2281726;59;21773;-82
2022/09/23 06:14:32;;;;;;;3.80;1.95;;;;;;;;;;2281575;59;21580;-81
2022/09/23 06:16:59;;;;;;;4.82;2.00;;;;;;;;;;2281640;59;21548;-82
2022/09/23 06:19:26;;;;;;;3.37;2.10;;;;;;;;;;2513970;55;22119;-82
2022/09/23 06:21:53;;;;;;;3.50;1.95;;;;;;;;;;2514093;55;21600;-81
2022/09/23 06:24:21;;;;;;;2.75;2.10;;;;;;;;;;2281156;59;21139;-81
2022/09/23 06:26:48;;;;;;;8.70;2.00;;;;;;;;;;2280088;59;21134;-82
2022/09/23 06:29:17;;;;;;;2.30;1.80;;;;;;;;;;2512130;55;21134;-81
2022/09/23 06:31:44;;;;;;;4.45;2.20;;;;;;;;;;2513031;55;21131;-82
2022/09/23 06:34:12;;;;;;;4.15;2.25;;;;;;;;;;2281090;59;21059;-81
2022/09/23 06:36:39;;;;;;;2.90;2.20;;;;;;;;;;2281297;59;21052;-82
2022/09/23 06:39:06;;;;;;;3.33;2.08;;;;;;;;;;2514245;55;21294;-82
2022/09/23 06:41:33;;;;;;;3.65;2.00;;;;;;;;;;2281289;59;21095;-82
2022/09/23 06:44:01;;;;;;;3.15;1.87;;;;;;;;;;2281301;59;21050;-83
2022/09/23 06:46:29;;;;;;;4.30;2.30;;;;;;;;;;2281200;59;21108;-81
2022/09/23 06:48:57;;;;;;;3.28;2.05;;;;;;;;;;2513988;55;21104;-82
2022/09/23 06:51:24;;;;;;;2.90;2.08;;;;;;;;;;2280704;59;21080;-82
2022/09/23 06:53:51;;;;;;;5.50;2.08;;;;;;;;;;2513412;55;21632;-83
2022/09/23 06:56:20;;;;;;;3.37;1.98;;;;;;;;;;2280421;59;21691;-82
2022/09/23 06:58:49;;;;;;;2.83;2.35;;;;;;;;;;2513350;55;21122;-83
2022/09/23 07:01:17;;;;;;;4.07;1.90;;;;;;;;;;2280447;59;21068;-82
2022/09/23 07:03:46;;;;;;;4.43;2.20;;;;;;;;;;2513631;55;21135;-82
2022/09/23 07:06:13;;;;;;;3.70;2.17;;;;;;;;;;2512259;55;21088;-82
2022/09/23 07:08:42;;;;;;;2.87;2.00;;;;;;;;;;2281262;59;21572;-82
2022/09/23 07:11:12;;;;;;;3.50;2.40;;;;;;;;;;2513948;55;21104;-82
2022/09/23 07:13:40;;;;;;;3.90;2.22;;;;;;;;;;2281747;59;21139;-83
2022/09/23 07:16:08;;;;;;;2.95;2.03;;;;;;;;;;2513167;55;21059;-82
2022/09/23 07:18:36;;;;;;;3.25;1.98;;;;;;;;;;2513687;55;21060;-82
2022/09/23 07:21:07;;;;;;;2.53;2.08;;;;;;;;;;2514308;55;21063;-83
2022/09/23 07:23:36;;;;;;;3.05;2.17;;;;;;;;;;2515481;55;21095;-83
2022/09/23 07:26:04;;;;;;;3.67;2.00;;;;;;;;;;2281181;59;21139;-83
2022/09/23 07:28:31;;;;;;;2.90;2.15;;;;;;;;;;2281993;59;21064;-83
2022/09/23 07:31:03;;;;;;;3.37;2.15;;;;;;;;;;2281446;59;21115;-82
2022/09/23 07:33:31;;;;;;;3.03;1.87;;;;;;;;;;2281203;59;21147;-82
2022/09/23 07:35:58;;;;;;;3.40;2.30;;;;;;;;;;2513107;55;21087;-82
2022/09/23 07:38:28;;;;;;;1.85;1.58;;;;;;;;;;2280872;59;21052;-82
2022/09/23 07:40:59;;;;;;;3.47;2.40;;;;;;;;;;2513170;55;21103;-82
2022/09/23 07:43:28;;;;;;;2.08;1.87;;;;;;;;;;2280831;59;21083;-83
2022/09/23 07:45:55;;;;;;;2.60;2.10;;;;;;;;;;2280406;59;21048;-83
2022/09/23 07:48:23;;;;;;;2.67;1.90;;;;;;;;;;2513740;55;21123;-82
2022/09/23 07:50:50;;;;;;;3.33;2.28;;;;;;;;;;2513508;55;21672;-82
2022/09/23 07:53:17;;;;;;;3.00;2.08;;;;;;;;;;2281268;59;21191;-80
2022/09/23 07:55:51;;;;;;;5.68;1.90;;;;;;;;;;2280718;59;21543;-82
2022/09/23 07:58:18;;;;;;;3.47;1.70;;;;;;;;;;2281823;59;21064;-84
2022/09/23 08:00:45;;;;;;;5.65;1.87;;;;;;;;;;2280719;59;21067;-83
2022/09/23 08:03:13;;;;;;;2.62;1.80;;;;;;;;;;2282246;59;21066;-82
2022/09/23 08:05:40;;;;;;;2.20;1.65;;;;;;;;;;2281990;59;21238;-83
2022/09/23 08:08:08;;;;;;;3.17;2.00;;;;;;;;;;2513906;55;21710;-82
2022/09/23 08:10:35;;;;;;;3.08;2.05;;;;;;;;;;2281067;59;21145;-83
2022/09/23 08:13:02;;;;;;;3.62;1.85;;;;;;;;;;2281173;59;21127;-82
2022/09/23 08:15:30;;;;;;;4.62;2.05;;;;;;;;;;2512922;55;21047;-81
2022/09/23 08:17:59;;;;;;;3.10;2.10;;;;;;;;;;2280495;59;21694;-81
2022/09/23 08:20:44;;;;;;;2.60;2.10;;;;;;;;;;2513130;55;21051;-81
2022/09/23 08:23:13;;;;;;;3.55;2.22;;;;;;;;;;2280956;59;21076;-81
2022/09/23 08:25:41;;;;;;;2.85;2.08;;;;;;;;;;2281038;59;21079;-81
2022/09/23 08:28:08;;;;;;;2.40;2.03;;;;;;;;;;2513815;55;21695;-81
2022/09/23 08:30:35;;;;;;;3.72;2.05;;;;;;;;;;2514424;55;21135;-81
2022/09/23 08:33:02;;;;;;;2.05;1.65;;;;;;;;;;2281104;59;21747;-81
2022/09/23 08:35:29;;;;;;;3.20;2.20;;;;;;;;;;2513528;55;21184;-81
2022/09/23 08:37:57;;;;;;;3.95;2.00;;;;;;;;;;2281505;59;21182;-82
2022/09/23 08:40:24;;;;;;;3.03;2.10;;;;;;;;;;2514707;55;21075;-81
2022/09/23 08:42:52;;;;;;;2.60;1.90;;;;;;;;;;2514283;55;21060;-83
2022/09/23 08:45:20;;;;;;;3.92;1.73;;;;;;;;;;2279792;59;21068;-79
2022/09/23 08:47:52;;;;;;;2.95;2.20;;;;;;;;;;2280466;59;21051;-80
2022/09/23 08:50:21;;;;;;;5.22;2.15;;;;;;;;;;2281394;59;21561;-77
2022/09/23 08:52:51;;;;;;;3.83;2.35;;;;;;;;;;2281113;59;21132;-81
2022/09/23 08:55:19;;;;;;;3.05;1.87;;;;;;;;;;2280184;59;21068;-82
2022/09/23 08:57:49;;;;;;;2.65;2.00;;;;;;;;;;2513084;55;21031;-78
2022/09/23 09:00:20;;;;;;;3.55;2.00;;;;;;;;;;2280409;59;21051;-82
2022/09/23 09:02:48;;;;;;;2.35;1.70;;;;;;;;;;2280632;59;21075;-82
2022/09/23 09:05:19;;;;;;;2.67;1.87;;;;;;;;;;2511436;55;21056;-81
2022/09/23 09:07:46;;;;;;;5.93;1.90;;;;;;;;;;2514494;55;21123;-81
2022/09/23 09:10:17;;;;;;;2.80;2.00;;;;;;;;;;2513951;55;21055;-82
2022/09/23 09:12:44;;;;;;;2.40;1.55;;;;;;;;;;2513907;55;21076;-81
2022/09/23 09:15:13;;;;;;;4.25;1.70;;;;;;;;;;2511910;55;21074;-77
2022/09/23 09:17:47;;;;;;;2.12;1.80;;;;;;;;;;2280746;59;21135;-83
2022/09/23 09:20:22;;;;;;;2.65;1.92;;;;;;;;;;2515009;55;21115;-84
2022/09/23 09:22:59;;;;;;;1.92;1.70;;;;;;;;;;2514609;55;21083;-84
2022/09/23 09:25:36;;;;;;;5.35;1.67;;;;;;;;;;2514916;55;21763;-84
2022/09/23 09:28:04;;;;;;;4.47;1.95;;;;;;;;;;2514895;55;21643;-83
2022/09/23 09:30:34;;;;;;;3.22;1.85;;;;;;;;;;2515503;55;21056;-83
2022/09/23 09:33:03;;;;;;;3.08;1.90;;;;;;;;;;2515182;55;21136;-84
2022/09/23 09:35:36;;;;;;;2.03;1.70;;;;;;;;;;2514756;55;21607;-85
2022/09/23 09:38:05;;;;;;;3.05;1.70;;;;;;;;;;2514981;55;21100;-85
2022/09/23 09:40:33;;;;;;;2.20;1.70;;;;;;;;;;2515310;55;21171;-84
2022/09/23 09:43:03;;;;;;;3.65;1.83;;;;;;;;;;2514824;55;21060;-85
2022/09/23 09:45:36;;;;;;;3.53;1.40;;;;;;;;;;2514976;55;21136;-84
2022/09/23 09:48:09;;;;;;;3.60;1.60;;;;;;;;;;2515162;55;21234;-85
2022/09/23 09:50:46;;;;;;;2.80;1.67;;;;;;;;;;2515649;55;21187;-84
2022/09/23 09:53:21;;;;;;;4.45;1.80;;;;;;;;;;2283150;59;21111;-84
2022/09/23 09:55:57;;;;;;;2.37;2.03;;;;;;;;;;2514915;55;21052;-84
2022/09/23 09:58:25;;;;;;;1.60;1.48;;;;;;;;;;2515324;55;21068;-84
2022/09/23 10:00:52;;;;;;;3.20;1.70;;;;;;;;;;2515485;55;21151;-85
2022/09/23 10:03:26;;;;;;;2.35;1.83;;;;;;;;;;2514871;55;21111;-85
2022/09/23 10:05:55;;;;;;;4.00;1.77;;;;;;;;;;2515513;55;21084;-85
2022/09/23 10:08:25;;;;;;;3.15;1.40;;;;;;;;;;2515464;55;21111;-84
2022/09/23 10:10:53;;;;;;;5.20;1.73;;;;;;;;;;2283151;59;21067;-84
2022/09/23 10:13:23;;;;;;;2.58;1.50;;;;;;;;;;2515530;55;21075;-84
2022/09/23 10:15:53;;;;;;;3.00;1.75;;;;;;;;;;2515267;55;21154;-84
2022/09/23 10:18:23;;;;;;;2.78;1.70;;;;;;;;;;2515881;55;21195;-84
2022/09/23 10:20:50;;;;;;;3.47;1.35;;;;;;;;;;2515250;55;21080;-84
2022/09/23 10:23:22;;;;;;;2.58;1.65;;;;;;;;;;2514953;55;21067;-84
2022/09/23 10:25:56;;;;;;;4.60;2.10;;;;;;;;;;2514560;55;21088;-84
2022/09/23 10:28:39;;;;;;;2.70;1.67;;;;;;;;;;2515628;55;21095;-84
2022/09/23 10:31:08;;;;;;;4.37;1.70;;;;;;;;;;2515732;55;21139;-84
2022/09/23 10:33:40;;;;;;;2.92;1.52;;;;;;;;;;2515635;55;21608;-84
2022/09/23 10:36:09;;;;;;;2.67;1.40;;;;;;;;;;2514886;55;21119;-84
2022/09/23 10:38:36;;;;;;;2.53;1.50;;;;;;;;;;2282844;59;21118;-84
2022/09/23 10:46:48;;;;;;;4.20;1.58;;;;;;;;;;2282550;59;21047;-83
2022/09/23 10:49:42;;;;;;;3.22;1.75;;;;;;;;;;2515660;55;21059;-84
2022/09/23 10:52:19;;;;;;;2.65;1.50;;;;;;;;;;2512629;55;21115;-84
2022/09/23 10:54:52;;;;;;;2.55;1.27;;;;;;;;;;2515109;55;21080;-84
2022/09/23 10:57:39;;;;;;;;;;;;;;;;;;2519173;55;21176;-84
2022/09/23 11:00:22;;;;;;;2.03;1.37;;;;;;;;;;2515513;55;20096;-84
2022/09/23 11:03:02;;;;;;;7.32;2.05;;;;;;;;;;2516018;55;21060;-85
2022/09/23 11:05:36;;;;;;;1.65;1.10;;;;;;;;;;2283135;59;21056;-84
2022/09/23 11:08:12;;;;;;;3.67;1.90;;;;;;;;;;2515787;55;21120;-85
2022/09/23 11:10:59;;;;;;;3.83;1.40;;;;;;;;;;2281993;59;21072;-83
2022/09/23 11:13:42;;;;;;;2.25;1.50;;;;;;;;;;2513088;55;21064;-83
2022/09/23 11:16:14;;;;;;;2.28;1.35;;;;;;;;;;2512876;55;21044;-82
2022/09/23 11:18:49;;;;;;;2.37;1.33;;;;;;;;;;2280570;59;21123;-81
2022/09/23 11:21:31;;;;;;;3.28;1.30;;;;;;;;;;2513138;55;21136;-82
2022/09/23 11:24:07;;;;;;;2.55;1.77;;;;;;;;;;2512794;55;21055;-82
2022/09/23 11:26:40;;;;;;;3.45;1.58;;;;;;;;;;2512966;55;21115;-83
2022/09/23 11:29:29;;;;;;;7.47;2.20;;;;;;;;;;2281721;59;21036;-82
2022/09/23 11:32:04;;;;;;;6.95;1.83;;;;;;;;;;2514016;55;21123;-81
2022/09/23 11:34:56;;;;;;;1.65;1.20;;;;;;;;;;2280073;59;21116;-80
2022/09/23 11:37:25;;;;;;;2.45;1.33;;;;;;;;;;2513229;55;21060;-82
2022/09/23 11:39:56;;;;;;;3.65;1.55;;;;;;;;;;2513842;55;21196;-80
2022/09/23 11:42:25;;;;;;;2.33;1.20;;;;;;;;;;2280907;59;21053;-82
2022/09/23 11:44:54;;;;;;;3.53;1.20;;;;;;;;;;2513734;55;21060;-82
2022/09/23 11:47:25;;;;;;;2.40;1.27;;;;;;;;;;2280294;59;21079;-81
2022/09/23 11:49:54;;;;;;;2.67;1.35;;;;;;;;;;2280671;59;21079;-82
2022/09/23 11:52:24;;;;;;;4.18;1.50;;;;;;;;;;2278855;59;21059;-81
2022/09/23 11:54:54;;;;;;;2.45;1.08;;;;;;;;;;2510787;55;21131;-82
2022/09/23 11:57:24;;;;;;;1.83;1.17;;;;;;;;;;2513286;55;21071;-82
2022/09/23 11:59:55;;;;;;;2.35;1.15;;;;;;;;;;2280505;59;21099;-82
2022/09/23 12:02:25;;;;;;;2.22;1.10;;;;;;;;;;2511960;55;21112;-81
2022/09/23 12:04:59;;;;;;;1.58;0.98;;;;;;;;;;2514465;55;21080;-84
2022/09/23 12:07:29;;;;;;;2.35;1.37;;;;;;;;;;2514561;55;21063;-83
2022/09/23 12:09:59;;;;;;;2.47;1.35;;;;;;;;;;2515087;55;21087;-83
2022/09/23 12:12:29;;;;;;;5.50;1.80;;;;;;;;;;2282621;59;21607;-83
2022/09/23 12:15:00;;;;;;;1.55;1.25;;;;;;;;;;2515076;55;21604;-84
2022/09/23 12:17:41;;;;;;;1.40;1.27;;;;;;;;;;2515149;55;21127;-84
2022/09/23 12:20:20;;;;;;;2.15;1.10;;;;;;;;;;2282545;59;21098;-84
2022/09/23 12:22:53;;;;;;;2.30;1.17;;;;;;;;;;2282455;59;21102;-83
2022/09/23 12:25:33;;;;;;;2.33;1.50;;;;;;;;;;2515124;55;21084;-83
2022/09/23 12:28:02;;;;;;;4.72;1.17;;;;;;;;;;2515592;55;21607;-84
2022/09/23 12:30:30;;;;;;;1.30;1.00;;;;;;;;;;2515364;55;21608;-83
2022/09/23 12:33:08;;;;;;;2.78;1.12;;;;;;;;;;2515244;55;21123;-83
2022/09/23 12:35:38;;;;;;;1.23;1.10;;;;;;;;;;2282388;59;21544;-84
2022/09/23 12:38:13;;;;;;;3.75;1.30;;;;;;;;;;2283068;59;21052;-84
2022/09/23 12:40:42;;;;;;;2.70;1.35;;;;;;;;;;2514675;55;21183;-84
2022/09/23 12:43:16;;;;;;;2.15;1.17;;;;;;;;;;2513917;55;21632;-85
2022/09/23 12:45:42;;;;;;;;;;;;;;;;;;2518826;55;21647;-84
2022/09/23 12:48:43;;;;;;;1.15;1.02;;;;;;;;;;2515644;55;20068;-85
2022/09/23 12:51:15;;;;;;;1.55;1.20;;;;;;;;;;2283044;59;21651;-86
2022/09/23 12:54:02;;;;;;;2.45;1.45;;;;;;;;;;2515218;55;21056;-84
2022/09/23 12:56:56;;;;;;;2.60;1.40;;;;;;;;;;2282587;59;21217;-84
2022/09/23 12:59:28;;;;;;;3.72;1.30;;;;;;;;;;2514304;55;21048;-84
2022/09/23 13:01:55;;;;;;;3.42;1.48;;;;;;;;;;2517019;55;21120;-87
2022/09/23 13:07:17;;;;;;;1.62;1.08;;;;;;;;;;2282983;59;21047;-84
2022/09/23 13:09:47;;;;;;;1.70;1.33;;;;;;;;;;2515598;55;21608;-85
2022/09/23 13:12:17;;;;;;;3.83;1.30;;;;;;;;;;2515529;55;21044;-85
2022/09/23 13:14:45;;;;;;;5.55;2.37;;;;;;;;;;2282875;59;21079;-84
2022/09/23 13:17:23;;;;;;;3.30;1.35;;;;;;;;;;2283092;59;21083;-85
2022/09/23 13:19:59;;;;;;;1.20;1.10;;;;;;;;;;2515184;55;21577;-85
2022/09/23 13:22:40;;;;;;;3.22;1.15;;;;;;;;;;2282729;59;21060;-85
2022/09/23 13:25:16;;;;;;;1.30;1.20;;;;;;;;;;2515247;55;21123;-86
2022/09/23 13:27:46;;;;;;;2.22;1.20;;;;;;;;;;2515805;55;21048;-85
2022/09/23 13:30:18;;;;;;;1.62;1.05;;;;;;;;;;2515562;55;21115;-86
2022/09/23 13:32:48;;;;;;;1.52;1.08;;;;;;;;;;2515679;55;21508;-85
2022/09/23 13:35:16;;;;;;;1.37;0.90;;;;;;;;;;2514881;55;21556;-84
2022/09/23 13:37:45;;;;;;;2.05;1.10;;;;;;;;;;2515016;55;21127;-85
2022/09/23 13:40:20;;;;;;;1.87;1.23;;;;;;;;;;2514891;55;21067;-85
2022/09/23 13:42:49;;;;;;;2.70;1.35;;;;;;;;;;2515328;55;21104;-85
2022/09/23 13:45:23;;;;;;;2.10;1.15;;;;;;;;;;2514496;55;21028;-85
2022/09/23 13:47:51;;;;;;;1.55;1.20;;;;;;;;;;2515052;55;21080;-85
2022/09/23 13:50:21;;;;;;;1.80;1.20;;;;;;;;;;2515103;55;21152;-85
2022/09/23 13:52:52;;;;;;;1.42;1.17;;;;;;;;;;2514929;55;21032;-85
2022/09/23 13:55:27;;;;;;;4.18;1.20;;;;;;;;;;2514229;55;21143;-85
2022/09/23 13:57:58;;;;;;;1.48;1.02;;;;;;;;;;2283316;59;21107;-85
2022/09/23 14:00:34;;;;;;;1.65;1.20;;;;;;;;;;2515050;55;21075;-85
2022/09/23 14:03:01;;;;;;;1.65;1.10;;;;;;;;;;2515356;55;21568;-86
2022/09/23 14:05:31;;;;;;;1.50;1.00;;;;;;;;;;2514430;55;21187;-86
2022/09/23 14:07:59;;;;;;;1.87;1.23;;;;;;;;;;2282996;59;21757;-86
2022/09/23 14:10:26;;;;;;;3.62;1.40;;;;;;;;;;2515035;55;21565;-86
2022/09/23 14:12:55;;;;;;;1.85;1.20;;;;;;;;;;2514948;55;21107;-86
2022/09/23 14:15:22;;;;;;;2.58;1.10;;;;;;;;;;2514239;55;21039;-86
2022/09/23 14:17:51;;;;;;;1.50;1.20;;;;;;;;;;2515053;55;21039;-86
2022/09/23 14:20:21;;;;;;;1.98;1.20;;;;;;;;;;2515021;55;21047;-85
2022/09/23 14:22:48;;;;;;;1.87;1.15;;;;;;;;;;2514708;55;21561;-85
2022/09/23 14:25:16;;;;;;;3.17;1.77;;;;;;;;;;2282329;59;21095;-85
2022/09/23 14:27:45;;;;;;;0.80;0.80;;;;;;;;;;2514543;55;22579;-85
2022/09/23 14:30:16;;;;;;;1.95;1.20;;;;;;;;;;2515284;55;21062;-85
2022/09/23 14:32:44;;;;;;;2.65;1.20;;;;;;;;;;2514735;55;21124;-85
2022/09/23 14:35:20;;;;;;;3.05;1.30;;;;;;;;;;2514604;55;21044;-87
2022/09/23 14:40:35;;;;;;;1.87;1.33;;;;;;;;;;2282804;59;21559;-86
2022/09/23 14:43:04;;;;;;;1.48;1.20;;;;;;;;;;2515125;55;21127;-85
2022/09/23 14:45:33;;;;;;;1.87;1.37;;;;;;;;;;2282262;59;21715;-85
2022/09/23 14:48:01;;;;;;;1.37;1.17;;;;;;;;;;2514811;55;21040;-85
2022/09/23 14:50:46;;;;;;;2.78;1.20;;;;;;;;;;2514736;55;21145;-85
2022/09/23 14:53:34;;;;;;;1.27;1.15;;;;;;;;;;2514987;55;21062;-85
2022/09/23 14:56:15;;;;;;;1.30;1.00;;;;;;;;;;2513610;55;21043;-85
2022/09/23 14:58:43;;;;;;;1.85;1.20;;;;;;;;;;2282092;59;21075;-85
2022/09/23 15:01:24;;;;;;;1.80;1.35;;;;;;;;;;2282663;59;21146;-85
2022/09/23 15:03:53;;;;;;;1.10;1.00;;;;;;;;;;2515000;55;21059;-85
2022/09/23 15:06:22;;;;;;;1.35;1.10;;;;;;;;;;2515049;55;21052;-85
2022/09/23 15:08:49;;;;;;;2.28;1.20;;;;;;;;;;2282362;59;21056;-86
2022/09/23 15:11:17;;;;;;;2.08;1.12;;;;;;;;;;2282784;59;21055;-86
2022/09/23 15:13:46;;;;;;;1.83;1.33;;;;;;;;;;2514568;55;21187;-85